createdAt,value
2023-02-14T00:01:24.431Z,3.80
2023-02-14T00:03:52.010Z,3.80
2023-02-14T00:06:19.586Z,3.80
2023-02-14T00:08:47.208Z,3.80
2023-02-14T00:11:14.788Z,3.80
2023-02-14T00:14:02.354Z,3.70
2023-02-14T00:19:04.248Z,3.70
2023-02-14T00:21:35.950Z,3.60
2023-02-14T00:24:04.510Z,3.60
2023-02-14T00:29:00.311Z,3.30
2023-02-14T00:31:28.050Z,3.30
2023-02-14T00:33:56.579Z,3.30
2023-02-14T00:38:52.352Z,3.30
2023-02-14T00:41:19.965Z,3.30
2023-02-14T00:43:49.243Z,3.30
2023-02-14T00:46:19.118Z,3.30
2023-02-14T00:48:47.233Z,3.30
2023-02-14T00:53:45.152Z,3.30
2023-02-14T00:58:41.662Z,3.20
2023-02-14T01:03:38.221Z,3.20
2023-02-14T01:06:06.208Z,3.10
2023-02-14T01:08:34.105Z,3.10
2023-02-14T01:11:16.411Z,3.00
2023-02-14T01:13:45.197Z,3.00
2023-02-14T01:16:16.273Z,2.90
2023-02-14T01:18:44.637Z,2.90
2023-02-14T01:21:23.106Z,2.90
2023-02-14T01:23:53.060Z,2.80
2023-02-14T01:26:22.039Z,2.70
2023-02-14T01:28:49.820Z,2.60
2023-02-14T01:31:21.010Z,2.60
2023-02-14T01:33:50.085Z,2.50
2023-02-14T01:36:18.775Z,2.40
2023-02-14T01:38:46.425Z,2.40
2023-02-14T01:41:14.564Z,2.40
2023-02-14T01:44:08.580Z,2.30
2023-02-14T01:46:37.742Z,2.30
2023-02-14T01:49:18.802Z,2.20
2023-02-14T01:51:57.258Z,2.10
2023-02-14T01:54:26.958Z,2.10
2023-02-14T01:57:05.236Z,1.90
2023-02-14T01:59:40.122Z,1.80
2023-02-14T02:02:08.408Z,1.70
2023-02-14T02:04:40.503Z,1.60
2023-02-14T02:07:14.873Z,1.50
2023-02-14T02:10:01.371Z,1.40
2023-02-14T02:15:00.132Z,1.50
2023-02-14T02:18:07.613Z,1.60
2023-02-14T02:21:00.529Z,1.50
2023-02-14T02:23:46.345Z,1.50
2023-02-14T02:26:59.138Z,1.60
2023-02-14T02:30:04.477Z,1.70
2023-02-14T02:32:42.832Z,1.80
2023-02-14T02:35:31.492Z,1.90
2023-02-14T02:38:27.151Z,1.90
2023-02-14T02:41:09.405Z,1.90
2023-02-14T02:43:58.814Z,1.90
2023-02-14T02:46:47.710Z,2.00
2023-02-14T02:49:57.406Z,2.10
2023-02-14T02:52:55.748Z,2.00
2023-02-14T02:58:58.740Z,2.00
2023-02-14T03:01:33.820Z,2.00
2023-02-14T03:04:25.786Z,2.00
2023-02-14T03:06:53.436Z,2.00
2023-02-14T03:12:22.880Z,1.90
2023-02-14T03:14:57.580Z,1.90
2023-02-14T03:17:37.304Z,2.00
2023-02-14T03:20:24.456Z,2.10
2023-02-14T03:23:31.998Z,2.20
2023-02-14T03:26:16.791Z,2.30
2023-02-14T03:29:01.524Z,2.40
2023-02-14T03:31:44.953Z,2.50
2023-02-14T03:34:17.435Z,2.70
2023-02-14T03:36:58.489Z,2.80
2023-02-14T03:39:28.322Z,2.90
2023-02-14T03:42:34.386Z,3.00
2023-02-14T03:45:04.928Z,3.10
2023-02-14T03:47:36.593Z,3.20
2023-02-14T03:50:09.385Z,3.20
2023-02-14T03:52:38.896Z,3.20
2023-02-14T03:55:08.420Z,3.20
2023-02-14T03:57:58.828Z,3.20
2023-02-14T04:00:28.612Z,3.10
2023-02-14T04:03:03.900Z,3.20
2023-02-14T04:05:31.550Z,3.20
2023-02-14T04:07:59.360Z,3.20
2023-02-14T04:10:27.465Z,3.20
2023-02-14T04:12:55.094Z,3.20
2023-02-14T04:18:09.014Z,3.20
2023-02-14T04:20:37.235Z,3.20
2023-02-14T04:23:04.857Z,3.20
2023-02-14T04:25:32.647Z,3.20
2023-02-14T04:28:00.180Z,3.20
2023-02-14T04:30:27.868Z,3.20
2023-02-14T04:32:55.421Z,3.20
2023-02-14T04:40:18.756Z,3.20
2023-02-14T04:42:46.990Z,3.20
2023-02-14T04:45:14.938Z,3.20
2023-02-14T04:47:42.541Z,3.30
2023-02-14T04:50:12.107Z,3.30
2023-02-14T04:52:39.871Z,3.30
2023-02-14T04:55:08.789Z,3.30
2023-02-14T04:57:36.523Z,3.30
2023-02-14T05:00:05.281Z,3.30
2023-02-14T05:05:00.859Z,3.30
2023-02-14T05:07:28.611Z,3.30
2023-02-14T05:09:56.132Z,3.30
2023-02-14T05:12:23.837Z,3.30
2023-02-14T05:14:51.420Z,3.30
2023-02-14T05:24:45.882Z,3.30
2023-02-14T05:27:13.562Z,3.30
2023-02-14T05:29:41.105Z,3.30
2023-02-14T05:32:08.780Z,3.40
2023-02-14T05:34:36.465Z,3.40
2023-02-14T05:37:04.121Z,3.30
2023-02-14T05:41:59.575Z,3.30
2023-02-14T05:44:27.212Z,3.30
2023-02-14T05:51:50.717Z,3.30
2023-02-14T05:54:18.287Z,3.30
2023-02-14T05:56:45.864Z,3.30
2023-02-14T05:59:14.636Z,3.20
2023-02-14T06:01:42.171Z,3.20
2023-02-14T06:04:09.888Z,3.20
2023-02-14T06:06:37.548Z,3.20
2023-02-14T06:09:05.357Z,3.20
2023-02-14T06:18:56.723Z,3.10
2023-02-14T06:21:24.325Z,3.10
2023-02-14T06:23:51.973Z,3.20
2023-02-14T06:26:19.515Z,3.20
2023-02-14T06:28:47.225Z,3.20
2023-02-14T06:31:18.198Z,3.20
2023-02-14T06:33:45.894Z,3.10
2023-02-14T06:36:13.730Z,3.20
2023-02-14T06:38:41.515Z,3.20
2023-02-14T06:41:10.245Z,3.20
2023-02-14T06:43:38.400Z,3.20
2023-02-14T06:46:06.042Z,3.20
2023-02-14T06:48:33.649Z,3.30
2023-02-14T06:51:01.689Z,3.20
2023-02-14T06:53:29.895Z,3.20
2023-02-14T06:55:57.425Z,3.20
2023-02-14T06:58:25.055Z,3.20
2023-02-14T07:00:55.542Z,3.20
2023-02-14T07:03:23.329Z,3.20
2023-02-14T07:05:51.408Z,3.20
2023-02-14T07:08:20.644Z,3.20
2023-02-14T07:10:48.248Z,3.20
2023-02-14T07:13:15.884Z,3.20
2023-02-14T07:15:43.496Z,3.20
2023-02-14T07:20:39.141Z,3.30
2023-02-14T07:25:34.633Z,3.30
2023-02-14T07:28:02.449Z,3.30
2023-02-14T07:30:30.094Z,3.40
2023-02-14T07:32:58.371Z,3.30
2023-02-14T07:35:26.527Z,3.40
2023-02-14T07:40:22.137Z,3.40
2023-02-14T07:42:56.814Z,3.40
2023-02-14T07:45:25.004Z,3.40
2023-02-14T07:47:55.105Z,3.50
2023-02-14T07:50:23.608Z,3.50
2023-02-14T07:52:51.392Z,3.50
2023-02-14T07:57:50.194Z,3.60
2023-02-14T08:00:18.944Z,3.60
2023-02-14T08:02:46.544Z,3.60
2023-02-14T08:05:14.881Z,3.60
2023-02-14T08:07:43.976Z,3.70
2023-02-14T08:10:13.081Z,3.70
2023-02-14T08:12:59.543Z,3.70
2023-02-14T08:15:52.620Z,3.70
2023-02-14T08:18:23.085Z,3.70
2023-02-14T08:20:51.091Z,3.70
2023-02-14T08:23:20.712Z,3.70
2023-02-14T08:25:49.798Z,3.70
2023-02-14T08:28:18.153Z,3.70
2023-02-14T08:30:46.134Z,3.80
2023-02-14T08:40:37.966Z,3.70
2023-02-14T08:43:07.054Z,3.70
2023-02-14T08:48:09.361Z,3.70
2023-02-14T08:50:38.122Z,3.70
2023-02-14T08:53:10.423Z,3.70
2023-02-14T08:55:39.059Z,3.70
2023-02-14T08:58:07.946Z,3.60
2023-02-14T09:00:35.666Z,3.60
2023-02-14T09:03:03.339Z,3.60
2023-02-14T09:07:59.584Z,3.70
2023-02-14T09:10:28.450Z,3.70
2023-02-14T09:12:56.153Z,3.70
2023-02-14T09:15:23.765Z,3.80
2023-02-14T09:17:51.962Z,3.80
2023-02-14T09:20:19.966Z,3.80
2023-02-14T09:22:48.845Z,3.80
2023-02-14T09:25:17.445Z,3.90
2023-02-14T09:27:45.155Z,3.90
2023-02-14T09:30:13.458Z,4.00
2023-02-14T09:38:13.962Z,4.10
2023-02-14T09:40:42.706Z,4.20
2023-02-14T09:43:30.782Z,4.20
2023-02-14T09:46:02.470Z,4.20
2023-02-14T09:48:33.483Z,4.20
2023-02-14T09:51:06.344Z,4.20
2023-02-14T09:53:38.140Z,4.20
2023-02-14T09:56:06.113Z,4.30
2023-02-14T09:58:40.847Z,4.30
2023-02-14T10:01:26.541Z,4.30
2023-02-14T10:04:12.798Z,4.30
2023-02-14T10:06:49.441Z,4.40
2023-02-14T10:09:44.760Z,4.40
2023-02-14T10:12:23.161Z,4.40
2023-02-14T10:14:53.302Z,4.40
2023-02-14T10:17:44.864Z,4.50
2023-02-14T10:20:34.780Z,4.60
2023-02-14T10:23:26.057Z,4.60
2023-02-14T10:26:00.635Z,4.60
2023-02-14T10:28:35.310Z,4.70
2023-02-14T10:31:18.036Z,4.70
2023-02-14T10:33:57.391Z,4.70
2023-02-14T10:36:43.902Z,4.70
2023-02-14T10:41:57.584Z,4.90
2023-02-14T10:45:02.418Z,5.00
2023-02-14T10:47:47.071Z,5.20
2023-02-14T10:50:27.390Z,5.20
2023-02-14T10:53:29.643Z,5.30
2023-02-14T10:56:08.695Z,5.40
2023-02-14T10:58:40.111Z,5.40
2023-02-14T11:01:14.001Z,5.40
2023-02-14T11:03:49.585Z,5.50
2023-02-14T11:06:17.322Z,5.50
2023-02-14T11:08:44.893Z,5.60
2023-02-14T11:11:23.252Z,5.60
2023-02-14T11:13:51.388Z,5.50
2023-02-14T11:16:36.745Z,5.50
2023-02-14T11:19:16.045Z,5.50
2023-02-14T11:21:45.545Z,5.70
2023-02-14T11:24:25.064Z,5.90
2023-02-14T11:26:55.700Z,6.10
2023-02-14T11:29:38.641Z,6.20
2023-02-14T11:32:13.585Z,6.30
2023-02-14T11:34:42.022Z,6.30
2023-02-14T11:37:31.480Z,6.30
2023-02-14T11:40:01.462Z,6.50
2023-02-14T11:42:42.620Z,6.50
2023-02-14T11:45:34.764Z,6.70
2023-02-14T11:48:31.434Z,6.90
2023-02-14T11:51:14.085Z,6.90
2023-02-14T11:53:47.431Z,6.70
2023-02-14T11:56:17.610Z,6.70
2023-02-14T11:58:49.740Z,6.70
2023-02-14T12:01:30.957Z,6.80
2023-02-14T12:04:03.361Z,7.00
2023-02-14T12:06:36.470Z,7.50
2023-02-14T12:09:29.482Z,7.50
2023-02-14T12:12:14.998Z,7.70
2023-02-14T12:14:42.885Z,7.80
2023-02-14T12:17:10.641Z,7.90
2023-02-14T12:19:45.434Z,8.00
2023-02-14T12:22:34.992Z,8.00
2023-02-14T12:25:24.471Z,8.10
2023-02-14T12:28:07.519Z,8.50
2023-02-14T12:30:36.824Z,9.60
2023-02-14T12:33:19.849Z,9.60
2023-02-14T12:36:06.777Z,10.00
2023-02-14T12:39:02.007Z,10.00
2023-02-14T12:41:38.740Z,10.00
2023-02-14T12:44:29.287Z,10.00
2023-02-14T12:47:16.575Z,10.10
2023-02-14T12:50:21.702Z,10.10
2023-02-14T12:53:07.511Z,10.50
2023-02-14T12:55:47.312Z,10.70
2023-02-14T12:58:24.878Z,10.50
2023-02-14T13:01:28.293Z,10.50
2023-02-14T13:04:17.872Z,10.20
2023-02-14T13:06:57.007Z,10.00
2023-02-14T13:09:39.765Z,10.00
2023-02-14T13:12:13.072Z,9.90
2023-02-14T13:15:00.301Z,9.80
2023-02-14T13:17:53.456Z,10.00
2023-02-14T13:20:48.637Z,10.10
2023-02-14T13:23:22.564Z,10.10
2023-02-14T13:26:03.816Z,10.20
2023-02-14T13:28:31.924Z,10.70
2023-02-14T13:31:01.028Z,10.70
2023-02-14T13:33:34.946Z,10.90
2023-02-14T13:36:09.460Z,11.30
2023-02-14T13:38:50.165Z,11.70
2023-02-14T13:41:19.980Z,12.30
2023-02-14T13:43:47.612Z,13.10
2023-02-14T13:46:33.278Z,13.80
2023-02-14T13:49:03.270Z,13.80
2023-02-14T13:51:45.776Z,14.40
2023-02-14T13:54:37.149Z,14.80
2023-02-14T13:57:34.337Z,15.70
2023-02-14T14:00:20.213Z,15.80
2023-02-14T14:02:56.680Z,16.00
2023-02-14T14:05:48.993Z,16.20
2023-02-14T14:08:23.404Z,16.60
2023-02-14T14:11:02.008Z,16.70
2023-02-14T14:13:41.667Z,16.80
2023-02-14T14:19:04.708Z,16.50
2023-02-14T14:21:38.963Z,16.40
2023-02-14T14:24:28.943Z,16.30
2023-02-14T14:27:00.488Z,16.20
2023-02-14T14:29:39.002Z,16.20
2023-02-14T14:32:18.338Z,16.20
2023-02-14T14:34:56.336Z,16.70
2023-02-14T14:37:51.793Z,17.00
2023-02-14T14:40:33.050Z,17.30
2023-02-14T14:43:37.253Z,17.90
2023-02-14T14:46:10.623Z,17.90
2023-02-14T14:48:45.629Z,17.90
2023-02-14T14:51:23.717Z,17.90
2023-02-14T14:53:55.852Z,18.10
2023-02-14T14:56:51.357Z,18.30
2023-02-14T14:59:23.313Z,18.40
2023-02-14T15:01:51.684Z,18.40
2023-02-14T15:04:25.615Z,18.20
2023-02-14T15:06:55.461Z,18.10
2023-02-14T15:09:31.503Z,18.10
2023-02-14T15:12:20.121Z,18.10
2023-02-14T15:14:54.522Z,18.20
2023-02-14T15:17:26.820Z,18.40
2023-02-14T15:19:58.750Z,18.40
2023-02-14T15:22:45.602Z,18.40
2023-02-14T15:25:21.757Z,18.20
2023-02-14T15:27:50.619Z,17.90
2023-02-14T15:30:23.837Z,17.90
2023-02-14T15:32:52.518Z,17.40
2023-02-14T15:35:25.849Z,17.40
2023-02-14T15:37:55.846Z,17.00
2023-02-14T15:40:29.318Z,17.00
2023-02-14T15:43:17.639Z,16.70
2023-02-14T15:45:48.253Z,16.80
2023-02-14T15:48:28.272Z,16.50
2023-02-14T15:50:59.908Z,16.50
2023-02-14T15:53:41.533Z,16.50
2023-02-14T15:56:28.081Z,16.40
2023-02-14T15:59:02.180Z,16.20
2023-02-14T16:01:32.073Z,16.00
2023-02-14T16:04:03.516Z,15.80
2023-02-14T16:06:44.602Z,15.40
2023-02-14T16:09:29.905Z,15.00
2023-02-14T16:11:57.521Z,14.90
2023-02-14T16:14:36.336Z,14.40
2023-02-14T16:17:13.105Z,13.90
2023-02-14T16:19:43.259Z,13.80
2023-02-14T16:22:24.294Z,13.30
2023-02-14T16:24:52.073Z,13.00
2023-02-14T16:27:19.664Z,12.30
2023-02-14T16:29:47.273Z,11.70
2023-02-14T16:32:23.714Z,11.60
2023-02-14T16:34:51.524Z,10.90
2023-02-14T16:37:25.768Z,10.60
2023-02-14T16:39:54.838Z,10.50
2023-02-14T16:42:22.467Z,10.00
2023-02-14T16:44:50.651Z,9.80
2023-02-14T16:47:20.490Z,9.60
2023-02-14T16:49:48.657Z,9.40
2023-02-14T16:52:28.448Z,9.30
2023-02-14T16:54:56.093Z,9.10
2023-02-14T16:57:30.666Z,8.90
2023-02-14T16:59:58.290Z,8.80
2023-02-14T17:02:28.888Z,8.70
2023-02-14T17:04:57.147Z,8.60
2023-02-14T17:09:58.438Z,8.50
2023-02-14T17:12:34.645Z,8.40
2023-02-14T17:15:07.504Z,8.30
2023-02-14T17:17:37.449Z,8.20
2023-02-14T17:20:08.304Z,8.10
2023-02-14T17:22:37.589Z,8.00
2023-02-14T17:25:06.199Z,7.90
2023-02-14T17:27:33.785Z,7.80
2023-02-14T17:32:29.747Z,7.70
2023-02-14T17:35:01.217Z,7.60
2023-02-14T17:37:31.131Z,7.50
2023-02-14T17:39:59.210Z,7.40
2023-02-14T17:44:55.498Z,7.30
2023-02-14T17:49:54.458Z,7.10
2023-02-14T17:52:23.928Z,7.00
2023-02-14T17:54:51.893Z,7.00
2023-02-14T17:59:48.877Z,6.90
2023-02-14T18:02:16.581Z,6.80
2023-02-14T18:04:44.260Z,6.70
2023-02-14T18:07:11.958Z,6.60
2023-02-14T18:09:39.704Z,6.60
2023-02-14T18:12:07.515Z,6.50
2023-02-14T18:17:03.423Z,6.30
2023-02-14T18:19:30.999Z,6.20
2023-02-14T18:21:58.627Z,6.20
2023-02-14T18:24:26.548Z,6.00
2023-02-14T18:26:55.421Z,6.10
2023-02-14T18:29:23.374Z,6.10
2023-02-14T18:41:43.438Z,5.90
2023-02-14T18:56:41.124Z,5.50
2023-02-14T18:59:10.605Z,5.50
2023-02-14T19:01:42.056Z,5.40
2023-02-14T19:04:12.193Z,5.40
2023-02-14T19:06:41.397Z,5.40
2023-02-14T19:09:11.725Z,5.40
2023-02-14T19:16:43.908Z,5.20
2023-02-14T19:21:39.600Z,5.10
2023-02-14T19:24:08.503Z,4.90
2023-02-14T19:26:40.314Z,5.00
2023-02-14T19:29:14.256Z,5.00
2023-02-14T19:31:44.648Z,4.90
2023-02-14T19:34:17.890Z,4.90
2023-02-14T19:36:46.215Z,4.80
2023-02-14T19:39:14.554Z,4.80
2023-02-14T19:41:42.833Z,4.70
2023-02-14T19:44:13.995Z,4.70
2023-02-14T19:46:44.332Z,4.70
2023-02-14T19:49:14.799Z,4.70
2023-02-14T19:54:12.858Z,4.70
2023-02-14T19:56:47.038Z,4.90
2023-02-14T19:59:20.402Z,4.90
2023-02-14T20:01:51.160Z,5.00
2023-02-14T20:04:24.649Z,5.10
2023-02-14T20:06:53.212Z,5.10
2023-02-14T20:11:54.659Z,5.10
2023-02-14T20:14:25.402Z,5.20
2023-02-14T20:16:55.240Z,5.20
2023-02-14T20:19:26.958Z,5.30
2023-02-14T20:21:56.164Z,5.30
2023-02-14T20:24:27.534Z,5.30
2023-02-14T20:26:56.553Z,5.30
2023-02-14T20:29:26.444Z,5.30
2023-02-14T20:31:58.102Z,5.40
2023-02-14T20:34:26.583Z,5.40
2023-02-14T20:36:55.948Z,5.40
2023-02-14T20:39:28.736Z,5.50
2023-02-14T20:41:56.711Z,5.60
2023-02-14T20:44:24.418Z,5.60
2023-02-14T20:46:54.514Z,5.70
2023-02-14T20:49:25.387Z,5.70
2023-02-14T20:51:53.947Z,5.70
2023-02-14T20:54:23.334Z,5.70
2023-02-14T20:56:51.390Z,5.70
2023-02-14T21:04:20.374Z,5.70
2023-02-14T21:06:49.081Z,5.70
2023-02-14T21:09:18.671Z,5.70
2023-02-14T21:11:46.326Z,5.60
2023-02-14T21:16:42.013Z,5.60
2023-02-14T21:19:10.381Z,5.60
2023-02-14T21:21:38.986Z,5.50
2023-02-14T21:24:14.742Z,5.40
2023-02-14T21:26:43.692Z,5.40
2023-02-14T21:29:11.601Z,5.40
2023-02-14T21:31:39.691Z,5.30
2023-02-14T21:34:07.420Z,5.20
2023-02-14T21:36:38.565Z,5.10
2023-02-14T21:39:06.869Z,5.00
2023-02-14T21:41:36.394Z,4.80
2023-02-14T21:44:05.122Z,4.60
2023-02-14T21:46:36.924Z,4.60
2023-02-14T21:49:24.244Z,4.50
2023-02-14T21:51:52.145Z,4.40
2023-02-14T21:54:19.702Z,4.40
2023-02-14T21:56:51.318Z,4.40
2023-02-14T22:06:43.070Z,4.20
2023-02-14T22:09:13.552Z,4.20
2023-02-14T22:11:41.657Z,4.20
2023-02-14T22:14:09.347Z,4.20
2023-02-14T22:19:06.790Z,4.10
2023-02-14T22:21:34.779Z,4.10
2023-02-14T22:26:43.215Z,4.20
2023-02-14T22:29:12.835Z,4.30
2023-02-14T22:31:44.403Z,4.30
2023-02-14T22:34:14.480Z,4.40
2023-02-14T22:36:42.193Z,4.30
2023-02-14T22:39:13.875Z,4.30
2023-02-14T22:41:41.806Z,4.30
2023-02-14T22:44:09.632Z,4.20
2023-02-14T22:46:37.770Z,4.20
2023-02-14T22:49:06.955Z,4.30
2023-02-14T22:51:39.424Z,4.30
2023-02-14T22:54:15.590Z,4.30
2023-02-14T22:56:45.805Z,4.30
2023-02-14T22:59:22.350Z,4.20
2023-02-14T23:01:51.412Z,4.10
2023-02-14T23:04:21.765Z,4.00
2023-02-14T23:06:49.496Z,3.90
2023-02-14T23:11:46.463Z,3.80
2023-02-14T23:14:34.624Z,3.70
2023-02-14T23:17:05.948Z,3.70
2023-02-14T23:19:54.281Z,3.70
2023-02-14T23:22:27.448Z,3.60
2023-02-14T23:24:57.908Z,3.60
2023-02-14T23:27:53.189Z,3.60
2023-02-14T23:32:49.116Z,3.60
2023-02-14T23:35:16.750Z,3.70
2023-02-14T23:37:44.357Z,3.70
2023-02-14T23:40:12.220Z,3.70
2023-02-14T23:42:40.046Z,3.70
2023-02-14T23:45:26.777Z,3.70
2023-02-14T23:47:54.504Z,3.70
2023-02-14T23:52:50.381Z,3.60
2023-02-14T23:55:17.958Z,3.60
2023-02-14T23:57:46.099Z,3.70
